FW9021 Weather Reports


Display with metric or nautical units.
time (UTC)temp
F
wind
direction
speed
MPH
gust
MPH
rain 1hr
in
rain 24hr
in
rain mn
in
humidity
%
barometer
mb
20240223053539 54 223 5.0 11.0 0.06 0.19 0.00 86 1003.1
20240223053051 53 252 6.0 10.0 0.10 0.19 0.00 86 1003.3
20240223052539 54 241 1.0 4.0 0.10 0.19 0.00 86 1003.2
20240223052039 54 186 1.0 7.0 0.10 0.19 0.00 86 1003.2
20240223051546 54 210 1.0 7.0 0.11 0.19 0.00 86 1003.3
20240223051039 54 161 2.0 6.0 0.13 0.19 0.00 86 1003.5
20240223050538 54 213 1.0 8.0 0.13 0.19 0.00 86 1003.7
20240223050112 54 223 2.0 10.0 0.13 0.19 0.00 86 1003.6
20240223045540 54 194 5.0 16.0 0.14 0.19 0.19 85 1003.7
20240223045036 54 243 8.0 16.0 0.13 0.18 0.18 85 1003.8
20240223044546 53 175 3.0 9.0 0.12 0.17 0.17 85 1004.1
20240223044040 53 236 1.0 12.0 0.11 0.16 0.16 85 1004.8
20240223043540 53 15 7.0 12.0 0.07 0.12 0.12 85 1004.7
20240223043053 53 344 2.0 6.0 0.04 0.09 0.09 85 1004.6
20240223042537 53 336 2.0 5.0 0.04 0.09 0.09 85 1004.0
20240223042039 53 19 3.0 5.0 0.04 0.09 0.09 85 1004.0
20240223041546 53 40 2.0 4.0 0.03 0.08 0.08 85 1003.9
20240223041039 53 32 1.0 3.0 0.01 0.06 0.06 86 1004.1
20240223040539 52 43 1.0 2.0 0.01 0.06 0.06 86 1003.9
20240223040049 52 0 0.0 3.0 0.01 0.06 0.06 86 1004.1
20240223035543 53 0 1.0 3.0 0.00 0.05 0.05 86 1004.4
20240223035038 53 43 1.0 2.0 0.00 0.05 0.05 86 1004.5
20240223034552 53 94 0.0 2.0 0.00 0.05 0.05 86 1004.6
20240223034036 53 0 1.0 2.0 0.00 0.05 0.05 86 1004.7
20240223033539 53 87 0.0 2.0 0.00 0.05 0.05 86 1004.9
20240223033052 53 0 0.0 2.0 0.00 0.05 0.05 86 1005.0
20240223032543 53 0 0.0 2.0 0.00 0.05 0.05 86 1004.9
20240223032036 53 0 0.0 2.0 0.01 0.05 0.05 86 1004.9
20240223031556 53 0 0.0 2.0 0.01 0.05 0.05 86 1005.1
20240223031035 53 108 1.0 3.0 0.01 0.05 0.05 86 1005.2
20240223030538 54 108 1.0 3.0 0.02 0.05 0.05 85 1005.2
20240223030041 54 80 0.0 2.0 0.02 0.05 0.05 85 1005.3
20240223025538 54 42 0.0 2.0 0.02 0.05 0.05 85 1005.2
20240223025035 54 42 0.0 3.0 0.03 0.05 0.05 85 1005.3
20240223024603 55 0 0.0 3.0 0.03 0.05 0.05 85 1005.4
20240223024039 55 103 0.0 4.0 0.03 0.05 0.05 84 1005.5
20240223023538 55 131 1.0 9.0 0.04 0.05 0.05 85 1005.5
20240223023044 55 178 1.0 9.0 0.05 0.05 0.05 84 1005.5
20240223022539 55 193 3.0 9.0 0.04 0.04 0.04 84 1005.7
20240223022039 55 231 1.0 5.0 0.04 0.04 0.04 84 1005.7
20240223021544 55 117 0.0 5.0 0.04 0.04 0.04 84 1005.8
20240223021036 55 153 0.0 5.0 0.04 0.04 0.04 83 1005.8
20240223020535 55 198 1.0 10.0 0.03 0.03 0.03 83 1006.0
20240223020049 55 161 2.0 10.0 0.03 0.03 0.03 83 1006.2
20240223015536 56 238 5.0 10.0 0.03 0.03 0.03 82 1006.5
20240223015035 56 260 1.0 6.0 0.02 0.02 0.02 80 1006.3
20240223014559 57 225 1.0 7.0 0.02 0.02 0.02 79 1006.2
20240223014035 57 226 2.0 7.0 0.02 0.02 0.02 77 1006.5
20240223013539 58 189 0.0 4.0 0.01 0.01 0.01 75 1006.6
20240223013047 58 189 0.0 4.0 0.00 0.00 0.00 74 1006.5
20240223012537 58 238 2.0 4.0 0.00 0.00 0.00 73 1006.6
20240223012039 58 259 0.0 2.0 0.00 0.00 0.00 72 1006.5
20240223011543 59 0 0.0 4.0 0.00 0.00 0.00 71 1006.5
20240223011035 59 0 1.0 6.0 0.00 0.00 0.00 71 1006.6
20240223010545 59 224 2.0 6.0 0.00 0.00 0.00 70 1006.6
20240223010042 60 109 0.0 7.0 0.00 0.00 0.00 69 1006.5
20240223005539 60 294 0.0 9.0 0.00 0.00 0.00 68 1006.6
20240223005043 60 217 3.0 9.0 0.00 0.00 0.00 67 1006.5
20240223004543 59 221 4.0 9.0 0.00 0.00 0.00 68 1006.6
20240223004035 59 210 4.0 11.0 0.00 0.00 0.00 69 1006.8
20240223003539 60 242 6.0 14.0 0.00 0.00 0.00 67 1007.0
20240223003040 60 234 8.0 14.0 0.00 0.00 0.00 66 1006.9
20240223002539 60 216 4.0 19.0 0.00 0.00 0.00 66 1006.8
20240223002040 60 250 9.0 19.0 0.00 0.00 0.00 67 1006.8
20240223001537 59 162 1.0 3.0 0.00 0.00 0.00 68 1007.1
20240223001038 59 236 1.0 3.0 0.00 0.00 0.00 68 1007.1
20240223000536 59 184 0.0 4.0 0.00 0.00 0.00 68 1007.0
20240223000054 59 0 0.0 4.0 0.00 0.00 0.00 68 1007.0
20240222235537 59 207 2.0 4.0 0.00 0.00 0.00 68 1006.9
20240222235042 59 0 0.0 4.0 0.00 0.00 0.00 68 1007.0
20240222234546 60 240 0.0 4.0 0.00 0.00 0.00 67 1006.9
20240222234041 60 236 2.0 7.0 0.00 0.00 0.00 67 1006.9
20240222233541 60 230 2.0 7.0 0.00 0.00 0.00 66 1007.0
20240222233101 60 234 3.0 7.0 0.00 0.00 0.00 66 1006.9
20240222232539 60 218 1.0 7.0 0.00 0.00 0.00 67 1007.1
20240222232045 60 212 5.0 9.0 0.00 0.00 0.00 67 1007.2
20240222231547 60 203 4.0 12.0 0.00 0.00 0.00 66 1007.3
20240222231040 60 205 6.0 12.0 0.00 0.00 0.00 66 1007.3
20240222230540 60 244 5.0 11.0 0.00 0.00 0.00 66 1007.4
20240222230054 60 219 3.0 10.0 0.00 0.00 0.00 66 1007.5
20240222225544 60 219 5.0 10.0 0.00 0.00 0.00 66 1007.6
20240222225039 60 221 2.0 10.0 0.00 0.00 0.00 66 1007.6
20240222224542 60 224 5.0 11.0 0.00 0.00 0.00 66 1007.6
20240222224040 61 237 6.0 12.0 0.00 0.00 0.00 65 1007.7
20240222223540 61 233 7.0 13.0 0.00 0.00 0.00 64 1007.7
20240222223045 61 231 5.0 17.0 0.00 0.00 0.00 64 1007.6
20240222222539 61 240 8.0 17.0 0.00 0.00 0.00 64 1008.0
20240222222041 61 252 12.0 16.0 0.00 0.00 0.00 63 1007.7
20240222221552 61 235 11.0 16.0 0.00 0.00 0.00 62 1007.8
20240222221040 61 252 12.0 16.0 0.00 0.00 0.00 63 1007.8
20240222220542 61 245 11.0 17.0 0.00 0.00 0.00 62 1007.7
20240222220046 62 241 10.0 17.0 0.00 0.00 0.00 61 1007.7
20240222215541 62 236 10.0 17.0 0.00 0.00 0.00 60 1007.6
20240222215041 61 279 10.0 16.0 0.00 0.00 0.00 61 1007.6
20240222214549 61 223 8.0 19.0 0.00 0.00 0.00 61 1007.5
20240222214040 62 234 10.0 19.0 0.00 0.00 0.00 58 1007.6
20240222213540 62 246 11.0 21.0 0.00 0.00 0.00 58 1007.6
20240222213050 62 248 13.0 21.0 0.00 0.00 0.00 56 1007.8
20240222212540 63 243 13.0 25.0 0.00 0.00 0.00 55 1008.0
20240222212040 63 242 17.0 25.0 0.00 0.00 0.00 54 1007.9
20240222211551 63 244 17.0 25.0 0.00 0.00 0.00 53 1007.9
20240222211040 63 249 12.0 20.0 0.00 0.00 0.00 54 1008.0
20240222210540 63 203 11.0 19.0 0.00 0.00 0.00 54 1008.0
20240222210044 63 223 11.0 20.0 0.00 0.00 0.00 52 1007.8
20240222205540 64 232 8.0 25.0 0.00 0.00 0.00 52 1007.8
20240222205040 63 223 13.0 25.0 0.00 0.00 0.00 52 1007.8
20240222204546 63 238 13.0 21.0 0.00 0.00 0.00 53 1007.8
20240222204040 63 172 12.0 21.0 0.00 0.00 0.00 54 1007.8
20240222203539 63 216 6.0 14.0 0.00 0.00 0.00 55 1007.8
20240222203051 62 255 6.0 18.0 0.00 0.00 0.00 56 1008.0
20240222202540 62 237 8.0 22.0 0.00 0.00 0.00 57 1008.0
20240222202039 61 246 12.0 24.0 0.00 0.00 0.00 57 1008.2
20240222201550 61 217 15.0 24.0 0.00 0.00 0.00 58 1008.4
20240222201039 61 220 16.0 24.0 0.00 0.00 0.00 57 1008.6
20240222200541 61 244 14.0 22.0 0.00 0.00 0.00 57 1008.7
20240222200103 61 227 14.0 23.0 0.00 0.00 0.00 57 1008.8
20240222195540 61 272 15.0 23.0 0.00 0.00 0.00 57 1008.9
20240222195040 61 254 16.0 26.0 0.00 0.00 0.00 57 1009.0
20240222194550 61 281 17.0 26.0 0.00 0.00 0.00 56 1009.2
20240222194043 61 237 16.0 25.0 0.00 0.00 0.00 57 1009.3
20240222193540 61 250 15.0 25.0 0.00 0.00 0.00 56 1009.3
20240222193048 61 232 11.0 18.0 0.00 0.00 0.00 57 1009.2
20240222192540 60 241 13.0 18.0 0.00 0.00 0.00 59 1009.4
20240222192039 61 219 11.0 17.0 0.00 0.00 0.00 55 1009.4
20240222191544 61 175 11.0 18.0 0.00 0.00 0.00 56 1009.5
20240222191040 61 240 13.0 22.0 0.00 0.00 0.00 58 1009.7
20240222190542 61 230 14.0 22.0 0.00 0.00 0.00 56 1009.9
20240222190046 60 241 14.0 22.0 0.00 0.00 0.00 58 1010.0
20240222185539 61 251 8.0 19.0 0.00 0.00 0.00 56 1010.1
20240222185039 60 247 11.0 18.0 0.00 0.00 0.00 57 1010.2
20240222184550 60 219 8.0 19.0 0.00 0.00 0.00 60 1010.3
20240222184041 59 244 13.0 19.0 0.00 0.00 0.00 63 1010.4
20240222183540 58 239 13.0 18.0 0.00 0.00 0.00 64 1010.6
20240222183052 59 240 12.0 18.0 0.00 0.00 0.00 63 1010.7
20240222182539 59 244 10.0 21.0 0.00 0.00 0.00 63 1010.9
20240222182041 59 198 7.0 25.0 0.00 0.00 0.00 62 1011.1
20240222181551 58 207 16.0 26.0 0.00 0.00 0.00 62 1011.3
20240222181040 58 246 14.0 26.0 0.00 0.00 0.00 62 1011.4
20240222180542 58 257 8.0 20.0 0.00 0.00 0.00 65 1011.7
20240222180049 57 241 7.0 13.0 0.00 0.00 0.00 68 1011.9
20240222175540 57 256 2.0 18.0 0.00 0.00 0.00 68 1012.1
20240222175040 57 250 10.0 18.0 0.00 0.00 0.00 68 1012.2
20240222174621 57 270 6.0 16.0 0.00 0.00 0.00 68 1012.4
20240222174040 57 253 9.0 16.0 0.00 0.00 0.00 68 1012.5
20240222173540 57 259 8.0 18.0 0.00 0.00 0.00 68 1012.8
20240222173050 57 220 10.0 18.0 0.00 0.00 0.00 68 1013.0
20240222172539 56 299 7.0 18.0 0.00 0.00 0.00 69 1013.2
20240222172039 56 232 10.0 18.0 0.00 0.00 0.00 69 1013.4
20240222171554 56 220 7.0 18.0 0.00 0.00 0.00 69 1013.6
20240222171039 56 244 8.0 18.0 0.00 0.00 0.00 70 1013.6
20240222170542 56 227 12.0 18.0 0.00 0.00 0.00 71 1013.9
20240222170049 55 259 6.0 17.0 0.00 0.00 0.00 72 1013.9
20240222165541 55 228 11.0 23.0 0.00 0.00 0.00 72 1014.1
20240222165041 55 297 11.0 23.0 0.00 0.00 0.00 72 1014.2
20240222164548 55 262 12.0 23.0 0.00 0.00 0.00 72 1014.3
20240222164039 55 227 12.0 21.0 0.00 0.00 0.00 72 1014.4
20240222163540 55 245 9.0 21.0 0.00 0.00 0.00 72 1014.4
20240222163043 55 238 10.0 17.0 0.00 0.00 0.00 72 1014.4
20240222162539 55 254 10.0 17.0 0.00 0.00 0.00 73 1014.8
20240222162040 55 227 8.0 27.0 0.00 0.00 0.00 73 1014.9
20240222161603 55 217 11.0 28.0 0.00 0.00 0.00 74 1015.1
20240222161040 55 251 18.0 28.0 0.00 0.00 0.00 73 1015.0
20240222160539 56 212 10.0 18.0 0.00 0.00 0.00 74 1014.9
20240222160049 56 229 8.0 15.0 0.00 0.00 0.00 74 1015.0
20240222155540 56 236 9.0 17.0 0.00 0.00 0.00 73 1014.9
20240222155039 56 218 6.0 17.0 0.00 0.00 0.00 73 1014.9
20240222154549 56 244 7.0 17.0 0.00 0.00 0.00 73 1014.8
20240222154039 55 217 5.0 14.0 0.00 0.00 0.00 73 1014.5
20240222153541 55 236 5.0 14.0 0.00 0.00 0.00 74 1014.6
20240222153110 55 240 8.0 14.0 0.00 0.00 0.00 76 1014.8
20240222152539 55 226 7.0 14.0 0.00 0.00 0.00 73 1015.0
20240222152042 55 234 4.0 13.0 0.00 0.00 0.00 72 1015.0
20240222151559 55 264 5.0 13.0 0.00 0.00 0.00 72 1015.1
20240222151043 55 240 4.0 15.0 0.00 0.00 0.00 72 1015.2
20240222150542 55 212 4.0 21.0 0.00 0.00 0.00 72 1015.3
20240222150052 55 229 10.0 21.0 0.00 0.00 0.00 72 1015.6
20240222145542 55 239 11.0 22.0 0.00 0.00 0.00 71 1015.8
20240222145040 55 223 8.0 22.0 0.00 0.00 0.00 71 1015.9
20240222144557 55 232 6.0 16.0 0.00 0.00 0.00 71 1016.0
20240222144039 55 232 9.0 22.0 0.00 0.00 0.00 71 1015.9
20240222143543 55 316 8.0 28.0 0.00 0.00 0.00 71 1015.8
20240222143053 55 243 16.0 28.0 0.00 0.00 0.00 71 1015.8
20240222142539 55 240 15.0 22.0 0.00 0.00 0.00 71 1015.6
20240222142039 54 239 11.0 17.0 0.00 0.00 0.00 73 1015.6
20240222141556 52 172 1.0 4.0 0.00 0.00 0.00 74 1015.3
20240222141039 52 88 1.0 3.0 0.00 0.00 0.00 75 1015.3
20240222140539 51 0 0.0 4.0 0.00 0.00 0.00 75 1015.3
20240222140048 50 212 0.0 4.0 0.00 0.00 0.00 77 1015.4
20240222135539 49 161 1.0 4.0 0.00 0.00 0.00 78 1015.3
20240222135039 48 149 2.0 6.0 0.00 0.00 0.00 79 1015.3
20240222134607 47 219 0.0 6.0 0.00 0.00 0.00 80 1015.4
20240222134040 46 88 1.0 3.0 0.00 0.00 0.00 79 1015.4
20240222133540 45 50 1.0 4.0 0.00 0.00 0.00 80 1015.4
20240222133050 45 0 0.0 5.0 0.00 0.00 0.00 81 1015.6
20240222132540 44 331 3.0 5.0 0.00 0.00 0.00 82 1015.5
20240222132040 44 135 1.0 4.0 0.00 0.00 0.00 82 1015.7
20240222131550 43 51 1.0 4.0 0.00 0.00 0.00 82 1015.7
20240222131043 43 245 1.0 6.0 0.00 0.00 0.00 82 1015.7
20240222130540 42 0 1.0 6.0 0.00 0.00 0.00 82 1015.6
20240222130044 41 106 0.0 3.0 0.00 0.00 0.00 81 1015.6
20240222125542 41 312 0.0 5.0 0.00 0.00 0.00 81 1015.6
20240222125040 41 113 1.0 5.0 0.00 0.00 0.00 80 1015.8
20240222124603 41 80 1.0 3.0 0.00 0.00 0.00 81 1015.8
20240222124041 41 13 1.0 3.0 0.00 0.00 0.00 81 1016.0
20240222123539 41 26 1.0 3.0 0.00 0.00 0.00 80 1015.9
20240222123048 41 57 0.0 3.0 0.00 0.00 0.00 79 1015.9
20240222122539 41 67 1.0 5.0 0.00 0.00 0.00 79 1015.9
20240222122041 41 272 2.0 5.0 0.00 0.00 0.00 79 1015.9
20240222121549 41 336 1.0 7.0 0.00 0.00 0.00 79 1015.9
20240222121040 40 280 2.0 7.0 0.00 0.00 0.00 78 1015.9
20240222120540 40 147 1.0 4.0 0.00 0.00 0.00 79 1016.0
20240222120046 40 36 2.0 4.0 0.00 0.00 0.00 78 1016.0
20240222115540 40 97 2.0 5.0 0.00 0.00 0.00 79 1016.0
20240222115039 40 63 2.0 5.0 0.00 0.00 0.00 78 1016.2
20240222114602 40 332 2.0 5.0 0.00 0.00 0.00 79 1016.1
20240222114040 40 128 0.0 4.0 0.00 0.00 0.00 79 1016.2
20240222113542 40 51 2.0 4.0 0.00 0.00 0.00 78 1016.3
20240222113041 40 71 1.0 5.0 0.00 0.00 0.00 77 1016.3
20240222112540 40 0 0.0 5.0 0.00 0.00 0.00 77 1016.4
20240222112040 40 0 2.0 5.0 0.00 0.00 0.00 77 1016.6
20240222111543 40 63 2.0 5.0 0.00 0.00 0.00 78 1016.5
20240222111039 40 27 1.0 4.0 0.00 0.00 0.00 78 1016.6
20240222110540 40 0 0.0 4.0 0.00 0.00 0.00 77 1016.4
20240222110045 41 54 1.0 4.0 0.00 0.00 0.00 77 1016.4
20240222105539 41 360 2.0 4.0 0.00 0.00 0.00 77 1016.6
20240222105039 41 22 1.0 6.0 0.00 0.00 0.00 77 1016.6
20240222104555 41 305 2.0 6.0 0.00 0.00 0.00 77 1016.7
20240222104040 41 53 3.0 6.0 0.00 0.00 0.00 78 1016.6
20240222103543 41 39 3.0 5.0 0.00 0.00 0.00 77 1016.9
20240222103102 41 5 2.0 5.0 0.00 0.00 0.00 76 1016.7
20240222102540 41 15 2.0 5.0 0.00 0.00 0.00 76 1016.7
20240222102042 41 270 0.0 5.0 0.00 0.00 0.00 76 1016.8
20240222101603 41 41 3.0 5.0 0.00 0.00 0.00 76 1016.8
20240222101039 41 20 1.0 7.0 0.00 0.00 0.00 77 1016.9
20240222100539 41 0 2.0 7.0 0.00 0.00 0.00 76 1017.0
20240222100055 42 13 2.0 8.0 0.00 0.00 0.00 75 1016.9
20240222095539 41 27 2.0 8.0 0.00 0.00 0.00 73 1016.8
20240222095039 41 41 1.0 5.0 0.00 0.00 0.00 76 1016.9
20240222094547 41 42 0.0 6.0 0.00 0.00 0.00 75 1016.7
20240222094043 41 11 3.0 7.0 0.00 0.00 0.00 75 1016.6
20240222093540 42 49 3.0 8.0 0.00 0.00 0.00 76 1016.6
20240222093056 42 35 3.0 8.0 0.00 0.00 0.00 74 1016.9
20240222092541 42 22 2.0 6.0 0.00 0.00 0.00 75 1016.9
20240222092040 42 0 1.0 6.0 0.00 0.00 0.00 74 1017.0
20240222091551 43 46 4.0 6.0 0.00 0.00 0.00 72 1017.1
20240222091041 43 32 2.0 5.0 0.00 0.00 0.00 74 1017.1
20240222090542 43 27 0.0 5.0 0.00 0.00 0.00 73 1017.1
20240222090050 43 0 1.0 7.0 0.00 0.00 0.00 72 1017.1
20240222085541 43 42 2.0 7.0 0.00 0.00 0.00 74 1017.1
20240222085041 43 84 1.0 4.0 0.00 0.00 0.00 72 1017.1
20240222084553 43 19 2.0 4.0 0.00 0.00 0.00 74 1017.2
20240222084040 43 0 0.0 6.0 0.00 0.00 0.00 73 1017.1
20240222083540 43 0 1.0 7.0 0.00 0.00 0.00 72 1017.2
20240222083052 43 28 4.0 7.0 0.00 0.00 0.00 70 1017.3
20240222082540 44 42 1.0 6.0 0.00 0.00 0.00 71 1017.1
20240222082040 44 27 2.0 6.0 0.00 0.00 0.00 70 1017.2
20240222081542 44 42 3.0 6.0 0.00 0.00 0.00 71 1017.2
20240222081041 44 31 3.0 6.0 0.00 0.00 0.00 69 1017.3
20240222080547 45 59 0.0 4.0 0.00 0.00 0.00 66 1017.4
20240222080046 45 50 1.0 6.0 0.00 0.00 0.00 67 1017.4
20240222075539 45 92 2.0 6.0 0.00 0.00 0.00 66 1017.4
20240222075040 45 40 0.0 2.0 0.00 0.00 0.00 66 1017.4
20240222074550 46 5 0.0 3.0 0.00 0.00 0.00 65 1017.5
20240222074040 46 0 0.0 3.0 0.00 0.00 0.00 63 1017.6
20240222073543 46 36 0.0 2.0 0.00 0.00 0.00 62 1017.6
20240222073044 46 0 1.0 4.0 0.00 0.00 0.00 62 1017.6
20240222072540 46 47 1.0 4.0 0.00 0.00 0.00 63 1017.8
20240222072041 47 49 1.0 4.0 0.00 0.00 0.00 63 1017.7
20240222071546 47 61 2.0 4.0 0.00 0.00 0.00 63 1017.8
20240222071040 46 55 1.0 4.0 0.00 0.00 0.00 62 1017.9
20240222070540 46 31 2.0 4.0 0.00 0.00 0.00 64 1017.7
20240222070042 46 57 0.0 3.0 0.00 0.00 0.00 61 1017.7
20240222065539 47 55 1.0 4.0 0.00 0.00 0.00 62 1017.7
20240222065039 47 41 0.0 4.0 0.00 0.00 0.00 61 1017.7
20240222064544 47 99 1.0 4.0 0.00 0.00 0.00 60 1017.7
20240222064042 47 80 0.0 4.0 0.00 0.00 0.00 59 1017.8
20240222063539 47 61 1.0 4.0 0.00 0.00 0.00 61 1017.9
20240222063042 47 30 1.0 3.0 0.00 0.00 0.00 61 1017.9
20240222062542 48 40 1.0 3.0 0.00 0.00 0.00 60 1017.9
20240222062042 48 44 0.0 4.0 0.00 0.00 0.00 59 1017.9
20240222061543 48 44 1.0 5.0 0.00 0.00 0.00 59 1018.1
20240222061039 48 39 1.0 5.0 0.00 0.00 0.00 59 1018.1
20240222060540 48 12 2.0 5.0 0.00 0.00 0.00 59 1018.2
20240222060058 48 22 1.0 3.0 0.00 0.00 0.00 60 1018.1
20240222055540 48 36 1.0 3.0 0.00 0.00 0.00 60 1018.1
20240222055047 48 31 1.0 3.0 0.00 0.00 0.00 61 1018.0
20240222054547 48 31 1.0 3.0 0.00 0.00 0.00 62 1018.1
20240222054043 48 31 0.0 3.0 0.00 0.00 0.00 62 1017.9